createdAt,value
2023-06-19T00:00:49.176Z,35.33
2023-06-19T00:03:17.160Z,35.49
2023-06-19T00:05:45.245Z,35.21
2023-06-19T00:08:13.182Z,35.37
2023-06-19T00:10:41.162Z,35.10
2023-06-19T00:13:09.165Z,35.30
2023-06-19T00:15:37.243Z,35.64
2023-06-19T00:18:05.982Z,35.38
2023-06-19T00:20:35.725Z,35.29
2023-06-19T00:23:04.320Z,35.67
2023-06-19T00:25:33.093Z,35.77
2023-06-19T00:28:01.060Z,35.55
2023-06-19T00:30:33.769Z,35.74
2023-06-19T00:33:03.596Z,35.71
2023-06-19T00:35:31.635Z,35.46
2023-06-19T00:38:02.940Z,35.80
2023-06-19T00:40:33.786Z,35.61
2023-06-19T00:43:02.202Z,35.85
2023-06-19T00:45:31.081Z,35.88
2023-06-19T00:48:01.702Z,36.22
2023-06-19T00:50:31.388Z,36.24
2023-06-19T00:53:01.246Z,36.17
2023-06-19T00:55:34.404Z,36.03
2023-06-19T00:58:02.829Z,36.39
2023-06-19T01:00:30.723Z,36.39
2023-06-19T01:03:00.354Z,36.26
2023-06-19T01:05:30.995Z,36.58
2023-06-19T01:08:08.722Z,36.53
2023-06-19T01:10:48.734Z,36.67
2023-06-19T01:13:46.440Z,36.74
2023-06-19T01:16:17.217Z,36.71
2023-06-19T01:18:46.050Z,37.00
2023-06-19T01:21:18.439Z,37.05
2023-06-19T01:23:46.788Z,37.15
2023-06-19T01:26:16.682Z,37.09
2023-06-19T01:28:46.513Z,37.39
2023-06-19T01:31:35.137Z,37.35
2023-06-19T01:34:06.128Z,37.69
2023-06-19T01:36:35.669Z,37.76
2023-06-19T01:39:04.941Z,38.01
2023-06-19T01:41:34.758Z,38.25
2023-06-19T01:44:03.710Z,38.19
2023-06-19T01:46:31.904Z,38.23
2023-06-19T01:49:00.807Z,38.33
2023-06-19T01:51:28.704Z,38.69
2023-06-19T01:53:57.395Z,38.74
2023-06-19T01:56:25.499Z,38.94
2023-06-19T01:58:53.565Z,39.01
2023-06-19T02:01:21.469Z,39.35
2023-06-19T02:03:49.511Z,39.78
2023-06-19T02:06:17.577Z,39.94
2023-06-19T02:08:45.518Z,40.42
2023-06-19T02:11:13.440Z,40.90
2023-06-19T02:13:43.652Z,41.10
2023-06-19T02:16:11.659Z,41.50
2023-06-19T02:18:40.162Z,41.77
2023-06-19T02:21:08.877Z,42.18
2023-06-19T02:23:36.939Z,42.45
2023-06-19T02:26:04.876Z,42.65
2023-06-19T02:28:33.065Z,42.87
2023-06-19T02:31:01.133Z,43.06
2023-06-19T02:33:30.252Z,43.21
2023-06-19T02:36:00.699Z,43.45
2023-06-19T02:38:30.846Z,43.49
2023-06-19T02:40:58.867Z,43.38
2023-06-19T02:43:26.727Z,43.63
2023-06-19T02:45:54.826Z,44.05
2023-06-19T02:48:24.312Z,44.35
2023-06-19T02:50:52.401Z,44.57
2023-06-19T02:53:20.606Z,44.80
2023-06-19T02:55:48.433Z,44.83
2023-06-19T02:58:16.256Z,45.11
2023-06-19T03:00:44.837Z,45.10
2023-06-19T03:03:13.354Z,45.04
2023-06-19T03:05:42.492Z,45.01
2023-06-19T03:08:11.029Z,44.94
2023-06-19T03:10:38.897Z,45.12
2023-06-19T03:13:07.220Z,45.11
2023-06-19T03:15:35.428Z,45.26
2023-06-19T03:18:05.660Z,45.05
2023-06-19T03:20:34.619Z,45.09
2023-06-19T03:23:03.074Z,45.13
2023-06-19T03:25:36.393Z,45.55
2023-06-19T03:28:06.445Z,45.35
2023-06-19T03:30:35.532Z,45.37
2023-06-19T03:33:04.397Z,45.15
2023-06-19T03:35:58.543Z,45.48
2023-06-19T03:38:37.261Z,45.42
2023-06-19T03:41:05.510Z,45.36
2023-06-19T03:43:33.886Z,45.21
2023-06-19T03:46:02.012Z,45.12
2023-06-19T03:48:31.208Z,45.28
2023-06-19T03:51:00.684Z,45.23
2023-06-19T03:53:29.415Z,45.39
2023-06-19T03:55:57.605Z,45.39
2023-06-19T03:58:25.543Z,45.34
2023-06-19T04:00:54.000Z,45.27
2023-06-19T04:03:22.248Z,45.32
2023-06-19T04:05:50.363Z,45.16
2023-06-19T04:08:18.370Z,45.45
2023-06-19T04:10:46.467Z,45.27
2023-06-19T04:13:14.632Z,45.20
2023-06-19T04:15:45.728Z,45.41
2023-06-19T04:18:14.958Z,45.27
2023-06-19T04:20:42.952Z,45.25
2023-06-19T04:23:14.442Z,45.31
2023-06-19T04:25:42.454Z,45.33
2023-06-19T04:28:10.429Z,45.18
2023-06-19T04:30:40.666Z,45.65
2023-06-19T04:33:09.756Z,45.51
2023-06-19T04:35:44.694Z,45.50
2023-06-19T04:38:15.763Z,45.64
2023-06-19T04:40:44.428Z,45.59
2023-06-19T04:43:12.344Z,45.60
2023-06-19T04:45:40.907Z,45.56
2023-06-19T04:48:08.851Z,45.51
2023-06-19T04:50:36.802Z,45.48
2023-06-19T04:53:05.096Z,45.66
2023-06-19T04:55:33.414Z,45.75
2023-06-19T04:58:01.488Z,45.62
2023-06-19T05:00:29.496Z,45.40
2023-06-19T05:03:00.831Z,45.72
2023-06-19T05:05:29.953Z,45.64
2023-06-19T05:07:57.951Z,45.52
2023-06-19T05:10:26.023Z,45.62
2023-06-19T05:12:55.868Z,45.52
2023-06-19T05:15:24.317Z,45.62
2023-06-19T05:17:52.422Z,45.61
2023-06-19T05:20:21.289Z,45.49
2023-06-19T05:22:49.295Z,45.66
2023-06-19T05:25:18.551Z,45.59
2023-06-19T05:27:47.461Z,45.73
2023-06-19T05:30:15.604Z,45.61
2023-06-19T05:32:44.611Z,45.66
2023-06-19T05:35:16.317Z,45.97
2023-06-19T05:37:45.022Z,45.74
2023-06-19T05:40:13.505Z,45.63
2023-06-19T05:42:42.617Z,45.76
2023-06-19T05:45:12.213Z,45.73
2023-06-19T05:47:41.042Z,45.58
2023-06-19T05:50:11.889Z,45.64
2023-06-19T05:52:44.008Z,45.67
2023-06-19T05:55:14.285Z,46.00
2023-06-19T05:57:42.518Z,45.88
2023-06-19T06:00:17.377Z,45.76
2023-06-19T06:02:45.388Z,45.72
2023-06-19T06:05:13.566Z,45.93
2023-06-19T06:07:42.010Z,45.99
2023-06-19T06:10:11.168Z,46.08
2023-06-19T06:12:41.177Z,46.32
2023-06-19T06:15:09.724Z,46.32
2023-06-19T06:17:37.712Z,46.50
2023-06-19T06:20:13.725Z,46.60
2023-06-19T06:22:42.726Z,46.66
2023-06-19T06:25:14.269Z,46.60
2023-06-19T06:27:43.426Z,46.30
2023-06-19T06:30:13.940Z,46.55
2023-06-19T06:32:42.132Z,46.41
2023-06-19T06:35:10.924Z,46.28
2023-06-19T06:37:40.408Z,46.30
2023-06-19T06:40:12.632Z,45.68
2023-06-19T06:42:42.254Z,45.41
2023-06-19T06:45:10.946Z,44.92
2023-06-19T06:47:41.373Z,44.96
2023-06-19T06:50:11.022Z,44.53
2023-06-19T06:52:39.502Z,44.41
2023-06-19T06:55:09.188Z,44.17
2023-06-19T06:57:37.136Z,44.38
2023-06-19T07:00:08.490Z,44.15
2023-06-19T07:02:36.570Z,43.93
2023-06-19T07:05:07.894Z,43.90
2023-06-19T07:07:39.465Z,43.72
2023-06-19T07:10:08.990Z,43.70
2023-06-19T07:12:37.718Z,43.26
2023-06-19T07:15:06.120Z,43.08
2023-06-19T07:17:33.956Z,43.02
2023-06-19T07:20:01.932Z,43.11
2023-06-19T07:22:29.848Z,42.92
2023-06-19T07:24:58.665Z,42.67
2023-06-19T07:27:28.705Z,42.43
2023-06-19T07:29:56.636Z,42.32
2023-06-19T07:32:24.562Z,42.21
2023-06-19T07:34:52.697Z,41.65
2023-06-19T07:37:21.787Z,41.79
2023-06-19T07:39:51.626Z,41.25
2023-06-19T07:42:21.989Z,41.13
2023-06-19T07:44:49.902Z,41.18
2023-06-19T07:47:20.274Z,41.11
2023-06-19T07:49:48.525Z,40.85
2023-06-19T07:52:16.516Z,41.14
2023-06-19T07:54:58.075Z,41.02
2023-06-19T07:57:27.783Z,41.02
2023-06-19T07:59:56.983Z,41.15
2023-06-19T08:02:25.163Z,41.10
2023-06-19T08:04:53.137Z,40.96
2023-06-19T08:07:23.181Z,40.84
2023-06-19T08:10:00.250Z,40.78
2023-06-19T08:12:36.124Z,40.85
2023-06-19T08:15:06.034Z,40.84
2023-06-19T08:17:36.310Z,40.97
2023-06-19T08:20:06.508Z,41.33
2023-06-19T08:22:34.804Z,41.12
2023-06-19T08:25:04.107Z,41.30
2023-06-19T08:27:32.110Z,41.03
2023-06-19T08:30:00.299Z,41.27
2023-06-19T08:32:29.931Z,41.25
2023-06-19T08:34:58.401Z,41.50
2023-06-19T08:37:26.270Z,41.88
2023-06-19T08:39:54.269Z,41.53
2023-06-19T08:42:22.250Z,42.04
2023-06-19T08:44:50.685Z,42.16
2023-06-19T08:47:30.498Z,41.79
2023-06-19T08:50:02.313Z,42.06
2023-06-19T08:52:30.918Z,42.16
2023-06-19T08:54:59.347Z,41.75
2023-06-19T08:57:39.988Z,41.84
2023-06-19T09:00:10.860Z,42.29
2023-06-19T09:02:54.838Z,41.81
2023-06-19T09:05:26.766Z,42.21
2023-06-19T09:08:04.096Z,41.77
2023-06-19T09:10:37.782Z,42.14
2023-06-19T09:13:05.912Z,41.82
2023-06-19T09:15:38.825Z,42.09
2023-06-19T09:18:16.572Z,41.63
2023-06-19T09:20:48.427Z,42.01
2023-06-19T09:23:19.232Z,41.76
2023-06-19T09:25:53.820Z,41.69
2023-06-19T09:28:29.739Z,41.83
2023-06-19T09:31:01.308Z,41.81
2023-06-19T09:33:34.675Z,41.64
2023-06-19T09:36:07.279Z,41.68
2023-06-19T09:38:40.148Z,41.42
2023-06-19T09:41:11.777Z,41.60
2023-06-19T09:43:45.598Z,41.36
2023-06-19T09:46:20.224Z,41.58
2023-06-19T09:48:49.971Z,41.82
2023-06-19T09:51:29.466Z,41.50
2023-06-19T09:54:00.727Z,41.11
2023-06-19T09:56:29.727Z,41.11
2023-06-19T09:59:02.947Z,40.90
2023-06-19T10:01:35.266Z,41.09
2023-06-19T10:04:09.244Z,40.63
2023-06-19T10:06:48.524Z,40.58
2023-06-19T10:09:19.475Z,40.53
2023-06-19T10:11:54.364Z,40.37
2023-06-19T10:14:24.086Z,40.51
2023-06-19T10:16:52.289Z,40.21
2023-06-19T10:19:25.982Z,39.97
2023-06-19T10:21:55.754Z,39.78
2023-06-19T10:24:26.773Z,39.98
2023-06-19T10:27:04.208Z,40.30
2023-06-19T10:29:43.741Z,39.89
2023-06-19T10:32:18.955Z,39.57
2023-06-19T10:34:50.274Z,39.57
2023-06-19T10:37:20.713Z,39.51
2023-06-19T10:39:48.680Z,39.57
2023-06-19T10:42:16.979Z,39.27
2023-06-19T10:44:45.515Z,38.88
2023-06-19T10:47:13.424Z,38.91
2023-06-19T10:49:42.665Z,38.90
2023-06-19T10:52:13.153Z,38.88
2023-06-19T10:54:41.071Z,38.93
2023-06-19T10:57:09.097Z,39.00
2023-06-19T10:59:40.821Z,38.80
2023-06-19T11:02:08.894Z,38.71
2023-06-19T11:04:42.696Z,38.31
2023-06-19T11:07:11.136Z,38.27
2023-06-19T11:09:45.140Z,38.22
2023-06-19T11:12:19.828Z,38.26
2023-06-19T11:14:50.147Z,38.05
2023-06-19T11:17:21.891Z,37.96
2023-06-19T11:19:51.379Z,38.12
2023-06-19T11:22:19.335Z,37.77
2023-06-19T11:24:47.776Z,37.90
2023-06-19T11:27:28.334Z,37.25
2023-06-19T11:29:59.744Z,37.27
2023-06-19T11:32:42.666Z,37.15
2023-06-19T11:35:13.805Z,37.54
2023-06-19T11:37:44.106Z,37.17
2023-06-19T11:40:13.570Z,37.19
2023-06-19T11:42:52.539Z,36.95
2023-06-19T11:45:20.772Z,36.46
2023-06-19T11:47:50.896Z,36.61
2023-06-19T11:50:20.541Z,36.58
2023-06-19T11:52:49.150Z,36.73
2023-06-19T11:55:19.007Z,36.43
2023-06-19T11:57:48.442Z,36.38
2023-06-19T12:00:18.996Z,36.38
2023-06-19T12:02:51.971Z,36.43
2023-06-19T12:05:20.708Z,35.89
2023-06-19T12:07:52.527Z,35.88
2023-06-19T12:10:23.391Z,36.24
2023-06-19T12:12:53.953Z,35.81
2023-06-19T12:15:21.900Z,36.11
2023-06-19T12:17:51.499Z,35.87
2023-06-19T12:20:21.165Z,35.47
2023-06-19T12:22:49.267Z,35.43
2023-06-19T12:25:17.455Z,35.70
2023-06-19T12:27:45.461Z,35.06
2023-06-19T12:30:13.817Z,35.26
2023-06-19T12:32:43.136Z,35.13
2023-06-19T12:35:11.052Z,34.76
2023-06-19T12:37:39.188Z,34.69
2023-06-19T12:40:11.970Z,34.58
2023-06-19T12:42:40.185Z,34.54
2023-06-19T12:45:09.166Z,34.46
2023-06-19T12:47:38.207Z,34.06
2023-06-19T12:50:06.745Z,33.65
2023-06-19T12:52:35.756Z,33.73
2023-06-19T12:55:05.452Z,33.92
2023-06-19T12:57:36.169Z,33.81
2023-06-19T13:00:10.245Z,33.60
2023-06-19T13:02:38.171Z,33.65
2023-06-19T13:05:07.897Z,33.29
2023-06-19T13:07:36.010Z,33.28
2023-06-19T13:10:04.692Z,33.12
2023-06-19T13:12:33.533Z,33.44
2023-06-19T13:15:01.485Z,33.24
2023-06-19T13:17:29.560Z,32.71
2023-06-19T13:20:00.313Z,32.74
2023-06-19T13:22:28.408Z,32.85
2023-06-19T13:24:56.317Z,32.85
2023-06-19T13:27:25.027Z,32.63
2023-06-19T13:29:56.617Z,32.89
2023-06-19T13:32:26.990Z,32.56
2023-06-19T13:34:55.066Z,32.30
2023-06-19T13:37:23.919Z,32.23
2023-06-19T13:39:52.056Z,32.27
2023-06-19T13:42:20.068Z,31.90
2023-06-19T13:44:51.487Z,31.78
2023-06-19T13:47:20.182Z,31.68
2023-06-19T13:49:48.136Z,32.07
2023-06-19T13:52:18.159Z,31.89
2023-06-19T13:54:49.107Z,32.29
2023-06-19T13:57:17.344Z,31.79
2023-06-19T13:59:45.292Z,31.64
2023-06-19T14:02:14.882Z,31.97
2023-06-19T14:04:42.841Z,31.54
2023-06-19T14:07:10.796Z,31.51
2023-06-19T14:09:39.201Z,31.73
2023-06-19T14:12:07.596Z,31.65
2023-06-19T14:14:36.661Z,31.77
2023-06-19T14:17:04.874Z,31.17
2023-06-19T14:19:33.367Z,31.33
2023-06-19T14:22:02.900Z,30.99
2023-06-19T14:24:30.945Z,31.23
2023-06-19T14:26:59.400Z,31.58
2023-06-19T14:29:27.464Z,31.13
2023-06-19T14:31:55.452Z,31.61
2023-06-19T14:34:23.461Z,31.28
2023-06-19T14:36:51.617Z,31.09
2023-06-19T14:39:19.661Z,30.89
2023-06-19T14:41:47.941Z,30.96
2023-06-19T14:44:16.494Z,31.07
2023-06-19T14:46:44.593Z,31.11
2023-06-19T14:49:14.362Z,30.70
2023-06-19T14:51:44.252Z,30.88
2023-06-19T14:54:12.268Z,30.93
2023-06-19T14:56:40.273Z,31.00
2023-06-19T14:59:09.813Z,30.66
2023-06-19T15:01:37.771Z,30.79
2023-06-19T15:04:05.998Z,30.77
2023-06-19T15:06:34.649Z,30.93
2023-06-19T15:09:05.578Z,31.09
2023-06-19T15:11:34.388Z,30.82
2023-06-19T15:14:02.951Z,30.85
2023-06-19T15:16:30.819Z,30.89
2023-06-19T15:18:58.853Z,31.04
2023-06-19T15:21:28.585Z,31.07
2023-06-19T15:23:59.750Z,30.92
2023-06-19T15:26:27.809Z,31.61
2023-06-19T15:28:55.842Z,31.13
2023-06-19T15:31:24.966Z,31.47
2023-06-19T15:33:53.001Z,31.32
2023-06-19T15:36:21.052Z,31.61
2023-06-19T15:38:49.587Z,31.09
2023-06-19T15:41:18.300Z,31.04
2023-06-19T15:43:46.247Z,31.12
2023-06-19T15:46:18.196Z,31.30
2023-06-19T15:48:48.000Z,31.22
2023-06-19T15:51:16.367Z,31.63
2023-06-19T15:53:44.306Z,31.48
2023-06-19T15:56:12.196Z,31.59
2023-06-19T15:58:40.495Z,31.49
2023-06-19T16:01:08.722Z,31.67
2023-06-19T16:03:37.173Z,31.74
2023-06-19T16:06:08.272Z,32.07
2023-06-19T16:08:40.556Z,31.56
2023-06-19T16:11:11.995Z,32.08
2023-06-19T16:13:39.955Z,32.00
2023-06-19T16:16:08.003Z,31.67
2023-06-19T16:18:36.266Z,32.00
2023-06-19T16:21:04.284Z,32.17
2023-06-19T16:23:32.222Z,32.02
2023-06-19T16:26:01.306Z,32.60
2023-06-19T16:28:31.065Z,32.70
2023-06-19T16:30:59.494Z,32.44
2023-06-19T16:33:30.199Z,32.58
2023-06-19T16:35:59.585Z,32.48
2023-06-19T16:38:27.532Z,32.82
2023-06-19T16:40:57.023Z,32.61
2023-06-19T16:43:25.932Z,32.34
2023-06-19T16:45:54.206Z,32.06
2023-06-19T16:48:22.197Z,32.38
2023-06-19T16:50:54.466Z,32.22
2023-06-19T16:53:23.264Z,32.69
2023-06-19T16:55:51.849Z,32.78
2023-06-19T16:58:20.191Z,32.28
2023-06-19T17:00:48.135Z,32.47
2023-06-19T17:03:16.265Z,32.88
2023-06-19T17:05:45.133Z,32.95
2023-06-19T17:08:13.506Z,32.43
2023-06-19T17:10:42.464Z,32.61
2023-06-19T17:13:10.960Z,32.68
2023-06-19T17:15:39.460Z,32.90
2023-06-19T17:18:07.848Z,32.67
2023-06-19T17:20:37.963Z,32.71
2023-06-19T17:23:08.365Z,32.75
2023-06-19T17:25:38.651Z,32.65
2023-06-19T17:28:07.359Z,32.74
2023-06-19T17:30:37.474Z,32.36
2023-06-19T17:33:07.801Z,32.78
2023-06-19T17:35:35.857Z,32.67
2023-06-19T17:38:04.195Z,32.88
2023-06-19T17:40:32.813Z,32.67
2023-06-19T17:43:00.758Z,32.77
2023-06-19T17:45:28.690Z,32.57
2023-06-19T17:47:56.735Z,32.62
2023-06-19T17:50:28.408Z,32.68
2023-06-19T17:52:56.643Z,32.67
2023-06-19T17:55:24.906Z,32.85
2023-06-19T17:57:55.415Z,33.43
2023-06-19T18:00:23.679Z,32.90
2023-06-19T18:02:52.073Z,32.86
2023-06-19T18:05:20.128Z,33.18
2023-06-19T18:07:50.684Z,33.09
2023-06-19T18:10:20.319Z,32.77
2023-06-19T18:12:50.715Z,32.96
2023-06-19T18:15:20.150Z,33.11
2023-06-19T18:17:48.881Z,33.04
2023-06-19T18:20:17.804Z,32.81
2023-06-19T18:22:45.800Z,32.34
2023-06-19T18:25:15.892Z,32.50
2023-06-19T18:27:47.105Z,32.35
2023-06-19T18:30:15.454Z,32.37
2023-06-19T18:32:45.978Z,32.32
2023-06-19T18:35:14.953Z,32.39
2023-06-19T18:37:43.058Z,32.73
2023-06-19T18:40:11.626Z,32.96
2023-06-19T18:42:42.115Z,33.00
2023-06-19T18:45:11.962Z,32.89
2023-06-19T18:47:41.237Z,33.00
2023-06-19T18:50:12.711Z,33.17
2023-06-19T18:52:41.181Z,33.42
2023-06-19T18:55:09.478Z,33.02
2023-06-19T18:57:37.565Z,33.38
2023-06-19T19:00:06.829Z,33.62
2023-06-19T19:02:36.761Z,33.62
2023-06-19T19:05:08.616Z,33.85
2023-06-19T19:07:37.253Z,34.28
2023-06-19T19:10:06.130Z,34.54
2023-06-19T19:12:34.489Z,34.82
2023-06-19T19:15:04.467Z,35.12
2023-06-19T19:17:34.428Z,35.27
2023-06-19T19:20:09.751Z,35.37
2023-06-19T19:22:37.748Z,35.54
2023-06-19T19:25:06.340Z,35.72
2023-06-19T19:27:35.338Z,35.28
2023-06-19T19:30:05.049Z,35.62
2023-06-19T19:32:34.879Z,34.95
2023-06-19T19:35:03.359Z,34.97
2023-06-19T19:37:33.129Z,34.73
2023-06-19T19:40:01.616Z,34.87
2023-06-19T19:42:32.211Z,34.78
2023-06-19T19:45:00.246Z,34.81
2023-06-19T19:47:28.261Z,35.08
2023-06-19T19:49:56.382Z,34.91
2023-06-19T19:52:25.735Z,34.61
2023-06-19T19:54:53.950Z,34.71
2023-06-19T19:57:22.706Z,34.60
2023-06-19T19:59:51.441Z,34.75
2023-06-19T20:02:19.856Z,34.98
2023-06-19T20:04:52.951Z,35.68
2023-06-19T20:07:21.047Z,35.97
2023-06-19T20:09:49.352Z,36.61
2023-06-19T20:12:21.892Z,36.67
2023-06-19T20:14:50.519Z,37.04
2023-06-19T20:17:18.897Z,37.43
2023-06-19T20:19:46.922Z,37.59
2023-06-19T20:22:15.059Z,37.91
2023-06-19T20:24:43.658Z,38.16
2023-06-19T20:27:12.359Z,38.42
2023-06-19T20:29:41.730Z,38.77
2023-06-19T20:32:09.877Z,38.81
2023-06-19T20:34:38.178Z,38.65
2023-06-19T20:37:07.122Z,38.81
2023-06-19T20:39:35.204Z,38.94
2023-06-19T20:42:03.646Z,38.88
2023-06-19T20:44:36.472Z,39.06
2023-06-19T20:47:08.605Z,39.25
2023-06-19T20:49:36.685Z,39.33
2023-06-19T20:52:06.742Z,39.43
2023-06-19T20:54:35.064Z,39.38
2023-06-19T20:57:03.495Z,39.63
2023-06-19T20:59:31.650Z,39.47
2023-06-19T21:02:01.519Z,39.64
2023-06-19T21:04:31.217Z,40.14
2023-06-19T21:06:59.876Z,39.97
2023-06-19T21:09:28.523Z,40.57
2023-06-19T21:11:58.407Z,40.45
2023-06-19T21:14:26.731Z,40.52
2023-06-19T21:16:58.005Z,40.49
2023-06-19T21:19:26.444Z,40.33
2023-06-19T21:21:54.992Z,40.51
2023-06-19T21:24:23.158Z,40.65
2023-06-19T21:26:51.203Z,40.59
2023-06-19T21:29:19.481Z,40.26
2023-06-19T21:31:47.534Z,40.07
2023-06-19T21:34:16.250Z,40.33
2023-06-19T21:36:44.833Z,40.42
2023-06-19T21:39:13.091Z,40.62
2023-06-19T21:41:41.485Z,40.62
2023-06-19T21:44:09.441Z,40.48
2023-06-19T21:46:37.738Z,40.77
2023-06-19T21:49:05.894Z,41.11
2023-06-19T21:51:36.032Z,41.49
2023-06-19T21:54:04.350Z,41.78
2023-06-19T21:56:32.307Z,41.67
2023-06-19T21:59:00.628Z,41.85
2023-06-19T22:01:28.687Z,41.74
2023-06-19T22:03:57.090Z,42.01
2023-06-19T22:06:25.945Z,41.87
2023-06-19T22:09:01.202Z,42.03
2023-06-19T22:11:32.346Z,42.09
2023-06-19T22:14:01.792Z,42.47
2023-06-19T22:16:29.779Z,42.69
2023-06-19T22:19:01.889Z,42.74
2023-06-19T22:21:30.224Z,42.71
2023-06-19T22:23:59.516Z,42.96
2023-06-19T22:26:27.874Z,42.95
2023-06-19T22:28:55.983Z,42.79
2023-06-19T22:31:24.140Z,43.03
2023-06-19T22:33:54.813Z,43.27
2023-06-19T22:36:22.900Z,43.46
2023-06-19T22:38:53.865Z,43.33
2023-06-19T22:41:21.834Z,43.52
2023-06-19T22:43:49.969Z,43.69
2023-06-19T22:46:18.588Z,43.92
2023-06-19T22:48:51.752Z,43.50
2023-06-19T22:51:19.984Z,43.86
2023-06-19T22:53:48.911Z,44.10
2023-06-19T22:56:17.194Z,44.12
2023-06-19T22:58:45.332Z,43.90
2023-06-19T23:01:13.513Z,44.08
2023-06-19T23:03:42.508Z,44.08
2023-06-19T23:06:11.599Z,44.16
2023-06-19T23:08:40.605Z,43.96
2023-06-19T23:11:09.890Z,43.98
2023-06-19T23:13:39.094Z,44.32
2023-06-19T23:16:11.542Z,44.57
2023-06-19T23:18:39.709Z,44.81
2023-06-19T23:21:07.663Z,44.59
2023-06-19T23:23:37.411Z,44.80
2023-06-19T23:26:05.467Z,44.73
2023-06-19T23:28:34.078Z,44.77
2023-06-19T23:31:02.307Z,44.74
2023-06-19T23:33:30.994Z,45.03
2023-06-19T23:35:59.583Z,44.72
2023-06-19T23:38:30.236Z,45.15
2023-06-19T23:40:58.394Z,45.16
2023-06-19T23:43:26.354Z,45.35
2023-06-19T23:45:55.311Z,46.29
2023-06-19T23:48:23.456Z,48.11
2023-06-19T23:50:51.330Z,50.90
2023-06-19T23:53:19.326Z,53.19
2023-06-19T23:55:47.496Z,54.56
2023-06-19T23:58:16.013Z,55.84
